sensor_id;sensor_type;location;lat;lon;timestamp;pressure;altitude;pressure_sealevel;temperature;humidity
56944;BME280;42848;42.524;12.052;2023-05-10T00:01:23;96429.81;;;16.59;100.00
56944;BME280;42848;42.524;12.052;2023-05-10T00:03:49;96423.31;;;16.67;100.00
56944;BME280;42848;42.524;12.052;2023-05-10T00:06:14;96423.59;;;16.62;100.00
56944;BME280;42848;42.524;12.052;2023-05-10T00:08:40;96416.59;;;16.65;100.00
56944;BME280;42848;42.524;12.052;2023-05-10T00:11:06;96413.78;;;16.61;100.00
56944;BME280;42848;42.524;12.052;2023-05-10T00:13:32;96413.75;;;16.58;100.00
56944;BME280;42848;42.524;12.052;2023-05-10T00:15:57;96412.00;;;16.69;100.00
56944;BME280;42848;42.524;12.052;2023-05-10T00:18:23;96415.16;;;16.71;100.00
56944;BME280;42848;42.524;12.052;2023-05-10T00:20:48;96407.16;;;16.62;100.00
56944;BME280;42848;42.524;12.052;2023-05-10T00:23:14;96402.16;;;16.68;100.00
56944;BME280;42848;42.524;12.052;2023-05-10T00:25:40;96404.81;;;16.38;100.00
56944;BME280;42848;42.524;12.052;2023-05-10T00:28:06;96403.31;;;16.44;100.00
56944;BME280;42848;42.524;12.052;2023-05-10T00:30:31;96395.09;;;16.44;100.00
56944;BME280;42848;42.524;12.052;2023-05-10T00:32:57;96392.81;;;16.46;100.00
56944;BME280;42848;42.524;12.052;2023-05-10T00:35:23;96390.50;;;16.48;100.00
56944;BME280;42848;42.524;12.052;2023-05-10T00:37:49;96381.84;;;16.46;100.00
56944;BME280;42848;42.524;12.052;2023-05-10T00:40:14;96384.50;;;16.65;100.00
56944;BME280;42848;42.524;12.052;2023-05-10T00:42:40;96382.06;;;16.60;100.00
56944;BME280;42848;42.524;12.052;2023-05-10T00:45:07;96377.94;;;16.47;100.00
56944;BME280;42848;42.524;12.052;2023-05-10T00:47:34;96378.25;;;16.42;100.00
56944;BME280;42848;42.524;12.052;2023-05-10T00:50:00;96370.75;;;16.39;100.00
56944;BME280;42848;42.524;12.052;2023-05-10T00:52:29;96373.44;;;16.35;100.00
56944;BME280;42848;42.524;12.052;2023-05-10T00:54:56;96376.25;;;16.39;100.00
56944;BME280;42848;42.524;12.052;2023-05-10T00:57:22;96370.88;;;16.46;100.00
56944;BME280;42848;42.524;12.052;2023-05-10T00:59:48;96373.19;;;16.44;100.00
56944;BME280;42848;42.524;12.052;2023-05-10T01:02:14;96364.50;;;16.38;100.00
56944;BME280;42848;42.524;12.052;2023-05-10T01:04:40;96367.69;;;16.44;100.00
56944;BME280;42848;42.524;12.052;2023-05-10T01:07:06;96359.72;;;16.35;100.00
56944;BME280;42848;42.524;12.052;2023-05-10T01:09:32;96357.25;;;16.49;100.00
56944;BME280;42848;42.524;12.052;2023-05-10T01:11:59;96364.25;;;16.47;100.00
56944;BME280;42848;42.524;12.052;2023-05-10T01:14:27;96357.28;;;16.53;100.00
56944;BME280;42848;42.524;12.052;2023-05-10T01:16:53;96361.81;;;16.42;100.00
56944;BME280;42848;42.524;12.052;2023-05-10T01:19:26;96354.31;;;16.39;100.00
56944;BME280;42848;42.524;12.052;2023-05-10T01:33:30;96350.31;;;16.33;100.00
56944;BME280;42848;42.524;12.052;2023-05-10T01:36:08;96344.09;;;16.36;100.00
56944;BME280;42848;42.524;12.052;2023-05-10T01:38:47;96342.22;;;16.40;100.00
56944;BME280;42848;42.524;12.052;2023-05-10T01:47:09;96351.09;;;16.33;100.00
56944;BME280;42848;42.524;12.052;2023-05-10T01:49:47;96348.19;;;16.23;100.00
56944;BME280;42848;42.524;12.052;2023-05-10T01:52:18;96342.50;;;16.35;100.00
56944;BME280;42848;42.524;12.052;2023-05-10T01:54:50;96343.41;;;16.42;100.00
56944;BME280;42848;42.524;12.052;2023-05-10T01:57:20;96342.69;;;16.23;100.00
56944;BME280;42848;42.524;12.052;2023-05-10T01:59:50;96334.63;;;16.30;100.00
56944;BME280;42848;42.524;12.052;2023-05-10T02:02:17;96333.25;;;16.43;100.00
56944;BME280;42848;42.524;12.052;2023-05-10T02:04:45;96334.97;;;15.82;100.00
56944;BME280;42848;42.524;12.052;2023-05-10T02:07:12;96333.88;;;16.33;100.00
56944;BME280;42848;42.524;12.052;2023-05-10T02:09:40;96334.50;;;16.23;100.00
56944;BME280;42848;42.524;12.052;2023-05-10T02:12:07;96328.09;;;16.38;100.00
56944;BME280;42848;42.524;12.052;2023-05-10T02:14:36;96330.88;;;16.41;100.00
56944;BME280;42848;42.524;12.052;2023-05-10T02:17:05;96327.72;;;16.39;100.00
56944;BME280;42848;42.524;12.052;2023-05-10T02:19:32;96335.56;;;16.41;100.00
56944;BME280;42848;42.524;12.052;2023-05-10T02:22:00;96330.84;;;16.38;100.00
56944;BME280;42848;42.524;12.052;2023-05-10T02:24:28;96325.28;;;16.34;100.00
56944;BME280;42848;42.524;12.052;2023-05-10T02:26:55;96325.84;;;16.20;100.00
56944;BME280;42848;42.524;12.052;2023-05-10T02:29:23;96326.75;;;16.28;100.00
56944;BME280;42848;42.524;12.052;2023-05-10T02:31:52;96325.22;;;16.31;100.00
56944;BME280;42848;42.524;12.052;2023-05-10T02:34:21;96331.13;;;16.33;100.00
56944;BME280;42848;42.524;12.052;2023-05-10T02:36:47;96317.25;;;16.22;100.00
56944;BME280;42848;42.524;12.052;2023-05-10T02:39:14;96318.47;;;16.25;100.00
56944;BME280;42848;42.524;12.052;2023-05-10T02:41:42;96316.16;;;16.27;100.00
56944;BME280;42848;42.524;12.052;2023-05-10T02:44:09;96312.56;;;16.23;100.00
56944;BME280;42848;42.524;12.052;2023-05-10T02:46:35;96310.38;;;15.86;100.00
56944;BME280;42848;42.524;12.052;2023-05-10T02:49:03;96305.81;;;16.39;100.00
56944;BME280;42848;42.524;12.052;2023-05-10T02:51:31;96314.16;;;16.24;100.00
56944;BME280;42848;42.524;12.052;2023-05-10T02:54:03;96299.88;;;16.11;100.00
56944;BME280;42848;42.524;12.052;2023-05-10T02:56:34;96300.25;;;16.36;100.00
56944;BME280;42848;42.524;12.052;2023-05-10T02:59:01;96290.66;;;16.23;100.00
56944;BME280;42848;42.524;12.052;2023-05-10T03:01:27;96294.75;;;16.09;100.00
56944;BME280;42848;42.524;12.052;2023-05-10T03:03:53;96291.88;;;16.25;100.00
56944;BME280;42848;42.524;12.052;2023-05-10T03:06:18;96286.09;;;16.07;100.00
56944;BME280;42848;42.524;12.052;2023-05-10T03:08:44;96278.97;;;16.26;100.00
56944;BME280;42848;42.524;12.052;2023-05-10T03:11:37;96281.00;;;16.06;100.00
56944;BME280;42848;42.524;12.052;2023-05-10T03:16:48;96278.38;;;15.90;100.00
56944;BME280;42848;42.524;12.052;2023-05-10T03:19:26;96272.84;;;15.86;100.00
56944;BME280;42848;42.524;12.052;2023-05-10T03:21:53;96271.09;;;15.75;100.00
56944;BME280;42848;42.524;12.052;2023-05-10T03:24:25;96272.91;;;15.90;100.00
56944;BME280;42848;42.524;12.052;2023-05-10T03:26:56;96263.00;;;15.82;100.00
56944;BME280;42848;42.524;12.052;2023-05-10T03:29:26;96276.97;;;16.00;100.00
56944;BME280;42848;42.524;12.052;2023-05-10T03:31:53;96265.00;;;15.85;100.00
56944;BME280;42848;42.524;12.052;2023-05-10T03:34:24;96259.09;;;16.06;100.00
56944;BME280;42848;42.524;12.052;2023-05-10T03:36:49;96269.19;;;15.79;100.00
56944;BME280;42848;42.524;12.052;2023-05-10T03:39:15;96265.22;;;15.99;100.00
56944;BME280;42848;42.524;12.052;2023-05-10T03:41:41;96258.78;;;15.88;100.00
56944;BME280;42848;42.524;12.052;2023-05-10T03:44:06;96269.25;;;16.05;100.00
56944;BME280;42848;42.524;12.052;2023-05-10T03:46:32;96267.31;;;16.06;100.00
56944;BME280;42848;42.524;12.052;2023-05-10T03:48:57;96266.28;;;16.14;100.00
56944;BME280;42848;42.524;12.052;2023-05-10T03:51:23;96267.88;;;15.92;100.00
56944;BME280;42848;42.524;12.052;2023-05-10T03:53:54;96255.28;;;16.10;100.00
56944;BME280;42848;42.524;12.052;2023-05-10T03:56:20;96260.88;;;15.95;100.00
56944;BME280;42848;42.524;12.052;2023-05-10T03:58:47;96256.59;;;15.97;100.00
56944;BME280;42848;42.524;12.052;2023-05-10T04:01:12;96261.38;;;16.00;100.00
56944;BME280;42848;42.524;12.052;2023-05-10T04:03:38;96262.63;;;16.06;100.00
56944;BME280;42848;42.524;12.052;2023-05-10T04:06:04;96261.72;;;15.76;100.00
56944;BME280;42848;42.524;12.052;2023-05-10T04:08:31;96254.41;;;16.06;100.00
56944;BME280;42848;42.524;12.052;2023-05-10T04:11:07;96253.31;;;16.11;100.00
56944;BME280;42848;42.524;12.052;2023-05-10T04:13:33;96252.00;;;16.01;100.00
56944;BME280;42848;42.524;12.052;2023-05-10T04:15:59;96248.63;;;15.88;100.00
56944;BME280;42848;42.524;12.052;2023-05-10T04:18:24;96249.00;;;16.10;100.00
56944;BME280;42848;42.524;12.052;2023-05-10T04:20:50;96250.75;;;16.21;100.00
56944;BME280;42848;42.524;12.052;2023-05-10T04:23:16;96239.78;;;16.21;100.00
56944;BME280;42848;42.524;12.052;2023-05-10T04:25:42;96256.16;;;16.18;100.00
56944;BME280;42848;42.524;12.052;2023-05-10T04:28:08;96250.84;;;16.02;100.00
56944;BME280;42848;42.524;12.052;2023-05-10T04:30:34;96251.25;;;16.04;100.00
56944;BME280;42848;42.524;12.052;2023-05-10T04:33:00;96255.06;;;16.00;100.00
56944;BME280;42848;42.524;12.052;2023-05-10T04:35:27;96258.09;;;16.17;100.00
56944;BME280;42848;42.524;12.052;2023-05-10T04:37:54;96264.03;;;15.54;100.00
56944;BME280;42848;42.524;12.052;2023-05-10T04:40:20;96269.47;;;15.93;100.00
56944;BME280;42848;42.524;12.052;2023-05-10T04:42:46;96264.84;;;15.74;100.00
56944;BME280;42848;42.524;12.052;2023-05-10T04:45:12;96258.75;;;15.84;100.00
56944;BME280;42848;42.524;12.052;2023-05-10T04:47:40;96254.28;;;15.99;100.00
56944;BME280;42848;42.524;12.052;2023-05-10T04:50:06;96257.22;;;15.64;100.00
56944;BME280;42848;42.524;12.052;2023-05-10T04:52:32;96256.97;;;15.53;100.00
56944;BME280;42848;42.524;12.052;2023-05-10T04:54:58;96250.06;;;15.59;100.00
56944;BME280;42848;42.524;12.052;2023-05-10T04:57:24;96256.69;;;15.58;100.00
56944;BME280;42848;42.524;12.052;2023-05-10T04:59:50;96251.63;;;15.38;100.00
56944;BME280;42848;42.524;12.052;2023-05-10T05:02:16;96252.00;;;15.17;100.00
56944;BME280;42848;42.524;12.052;2023-05-10T05:04:41;96247.00;;;15.42;100.00
56944;BME280;42848;42.524;12.052;2023-05-10T05:07:07;96246.53;;;15.59;100.00
56944;BME280;42848;42.524;12.052;2023-05-10T05:09:33;96245.13;;;15.26;100.00
56944;BME280;42848;42.524;12.052;2023-05-10T05:11:58;96242.19;;;15.35;100.00
56944;BME280;42848;42.524;12.052;2023-05-10T05:14:24;96250.09;;;15.40;100.00
56944;BME280;42848;42.524;12.052;2023-05-10T05:16:51;96237.84;;;15.73;100.00
56944;BME280;42848;42.524;12.052;2023-05-10T05:19:17;96243.53;;;15.87;100.00
56944;BME280;42848;42.524;12.052;2023-05-10T05:21:42;96235.66;;;15.82;100.00
56944;BME280;42848;42.524;12.052;2023-05-10T05:24:08;96243.47;;;15.41;100.00
56944;BME280;42848;42.524;12.052;2023-05-10T05:26:35;96235.41;;;15.48;100.00
56944;BME280;42848;42.524;12.052;2023-05-10T05:29:02;96240.88;;;15.48;100.00
56944;BME280;42848;42.524;12.052;2023-05-10T05:31:28;96239.09;;;15.36;100.00
56944;BME280;42848;42.524;12.052;2023-05-10T05:33:54;96237.06;;;15.33;100.00
56944;BME280;42848;42.524;12.052;2023-05-10T05:36:21;96235.31;;;15.02;100.00
56944;BME280;42848;42.524;12.052;2023-05-10T05:38:46;96236.16;;;15.06;100.00
56944;BME280;42848;42.524;12.052;2023-05-10T05:41:12;96229.84;;;15.02;100.00
56944;BME280;42848;42.524;12.052;2023-05-10T05:43:37;96237.84;;;15.11;100.00
56944;BME280;42848;42.524;12.052;2023-05-10T05:46:03;96235.75;;;14.85;100.00
56944;BME280;42848;42.524;12.052;2023-05-10T05:48:31;96235.38;;;14.67;100.00
56944;BME280;42848;42.524;12.052;2023-05-10T05:50:57;96231.28;;;14.58;100.00
56944;BME280;42848;42.524;12.052;2023-05-10T05:53:24;96235.56;;;14.59;100.00
56944;BME280;42848;42.524;12.052;2023-05-10T05:55:57;96235.59;;;14.78;100.00
56944;BME280;42848;42.524;12.052;2023-05-10T05:58:23;96245.25;;;14.91;100.00
56944;BME280;42848;42.524;12.052;2023-05-10T06:00:50;96241.16;;;14.82;100.00
56944;BME280;42848;42.524;12.052;2023-05-10T06:03:18;96238.38;;;14.62;100.00
56944;BME280;42848;42.524;12.052;2023-05-10T06:05:44;96249.03;;;14.67;100.00
56944;BME280;42848;42.524;12.052;2023-05-10T06:08:10;96250.19;;;14.66;100.00
56944;BME280;42848;42.524;12.052;2023-05-10T06:10:36;96242.78;;;14.67;100.00
56944;BME280;42848;42.524;12.052;2023-05-10T06:13:02;96244.16;;;14.76;100.00
56944;BME280;42848;42.524;12.052;2023-05-10T06:15:28;96238.16;;;14.71;100.00
56944;BME280;42848;42.524;12.052;2023-05-10T06:17:53;96235.91;;;14.73;100.00
56944;BME280;42848;42.524;12.052;2023-05-10T06:20:19;96250.97;;;14.67;100.00
56944;BME280;42848;42.524;12.052;2023-05-10T06:22:45;96244.91;;;14.58;100.00
56944;BME280;42848;42.524;12.052;2023-05-10T06:25:10;96240.97;;;14.39;100.00
56944;BME280;42848;42.524;12.052;2023-05-10T06:27:37;96242.41;;;14.68;100.00
56944;BME280;42848;42.524;12.052;2023-05-10T06:30:03;96243.38;;;14.76;100.00
56944;BME280;42848;42.524;12.052;2023-05-10T06:32:30;96243.66;;;14.90;100.00
56944;BME280;42848;42.524;12.052;2023-05-10T06:34:55;96247.63;;;14.93;100.00
56944;BME280;42848;42.524;12.052;2023-05-10T06:37:21;96247.53;;;14.89;100.00
56944;BME280;42848;42.524;12.052;2023-05-10T06:39:46;96247.66;;;14.58;100.00
56944;BME280;42848;42.524;12.052;2023-05-10T06:42:12;96248.03;;;14.75;100.00
56944;BME280;42848;42.524;12.052;2023-05-10T06:44:38;96250.19;;;15.05;100.00
56944;BME280;42848;42.524;12.052;2023-05-10T06:47:04;96245.94;;;15.07;100.00
56944;BME280;42848;42.524;12.052;2023-05-10T06:49:29;96244.00;;;15.08;100.00
56944;BME280;42848;42.524;12.052;2023-05-10T06:51:55;96246.53;;;15.17;100.00
56944;BME280;42848;42.524;12.052;2023-05-10T06:54:21;96237.09;;;15.14;100.00
56944;BME280;42848;42.524;12.052;2023-05-10T06:56:48;96245.13;;;15.26;100.00
56944;BME280;42848;42.524;12.052;2023-05-10T06:59:14;96251.28;;;15.20;100.00
56944;BME280;42848;42.524;12.052;2023-05-10T07:01:42;96238.75;;;14.99;100.00
56944;BME280;42848;42.524;12.052;2023-05-10T07:04:08;96234.72;;;15.13;100.00
56944;BME280;42848;42.524;12.052;2023-05-10T07:06:34;96241.38;;;14.92;100.00
56944;BME280;42848;42.524;12.052;2023-05-10T07:09:00;96237.75;;;15.07;100.00
56944;BME280;42848;42.524;12.052;2023-05-10T07:11:26;96240.16;;;15.09;100.00
56944;BME280;42848;42.524;12.052;2023-05-10T07:13:52;96239.31;;;15.08;100.00
56944;BME280;42848;42.524;12.052;2023-05-10T07:16:17;96243.75;;;15.36;100.00
56944;BME280;42848;42.524;12.052;2023-05-10T07:18:43;96237.03;;;15.53;100.00
56944;BME280;42848;42.524;12.052;2023-05-10T07:21:09;96229.63;;;15.53;100.00
56944;BME280;42848;42.524;12.052;2023-05-10T07:23:34;96238.53;;;15.27;100.00
56944;BME280;42848;42.524;12.052;2023-05-10T07:26:00;96228.09;;;15.33;100.00
56944;BME280;42848;42.524;12.052;2023-05-10T07:28:27;96226.44;;;15.28;100.00
56944;BME280;42848;42.524;12.052;2023-05-10T07:30:53;96230.91;;;15.59;100.00
56944;BME280;42848;42.524;12.052;2023-05-10T07:33:19;96223.72;;;15.51;100.00
56944;BME280;42848;42.524;12.052;2023-05-10T07:35:44;96223.22;;;15.23;100.00
56944;BME280;42848;42.524;12.052;2023-05-10T07:38:10;96224.59;;;15.55;100.00
56944;BME280;42848;42.524;12.052;2023-05-10T07:40:36;96225.31;;;15.52;100.00
56944;BME280;42848;42.524;12.052;2023-05-10T07:43:03;96224.47;;;15.48;100.00
56944;BME280;42848;42.524;12.052;2023-05-10T07:45:29;96226.94;;;15.34;100.00
56944;BME280;42848;42.524;12.052;2023-05-10T07:47:54;96225.59;;;15.67;100.00
56944;BME280;42848;42.524;12.052;2023-05-10T07:50:20;96225.31;;;15.52;100.00
56944;BME280;42848;42.524;12.052;2023-05-10T07:52:47;96223.19;;;15.42;100.00
56944;BME280;42848;42.524;12.052;2023-05-10T07:55:13;96226.66;;;15.39;100.00
56944;BME280;42848;42.524;12.052;2023-05-10T07:57:39;96228.88;;;15.33;100.00
56944;BME280;42848;42.524;12.052;2023-05-10T08:00:06;96229.94;;;15.48;100.00
56944;BME280;42848;42.524;12.052;2023-05-10T08:02:35;96218.72;;;15.34;100.00
56944;BME280;42848;42.524;12.052;2023-05-10T08:05:01;96220.91;;;15.25;100.00
56944;BME280;42848;42.524;12.052;2023-05-10T08:07:26;96226.44;;;15.28;100.00
56944;BME280;42848;42.524;12.052;2023-05-10T08:09:52;96225.22;;;15.26;100.00
56944;BME280;42848;42.524;12.052;2023-05-10T08:12:18;96214.13;;;15.38;100.00
56944;BME280;42848;42.524;12.052;2023-05-10T08:14:43;96223.19;;;15.42;100.00
56944;BME280;42848;42.524;12.052;2023-05-10T08:17:09;96221.63;;;15.22;100.00
56944;BME280;42848;42.524;12.052;2023-05-10T08:19:35;96206.22;;;15.33;100.00
56944;BME280;42848;42.524;12.052;2023-05-10T08:22:00;96202.06;;;15.20;100.00
56944;BME280;42848;42.524;12.052;2023-05-10T08:24:26;96201.00;;;15.05;100.00
56944;BME280;42848;42.524;12.052;2023-05-10T08:26:51;96197.63;;;15.34;100.00
56944;BME280;42848;42.524;12.052;2023-05-10T08:29:17;96204.50;;;15.25;100.00
56944;BME280;42848;42.524;12.052;2023-05-10T08:31:43;96205.56;;;15.40;100.00
56944;BME280;42848;42.524;12.052;2023-05-10T08:34:08;96204.91;;;15.46;100.00
56944;BME280;42848;42.524;12.052;2023-05-10T08:36:34;96201.34;;;15.23;100.00
56944;BME280;42848;42.524;12.052;2023-05-10T08:38:59;96193.56;;;15.25;100.00
56944;BME280;42848;42.524;12.052;2023-05-10T08:41:25;96203.28;;;15.64;100.00
56944;BME280;42848;42.524;12.052;2023-05-10T08:43:54;96191.63;;;15.48;100.00
56944;BME280;42848;42.524;12.052;2023-05-10T08:46:22;96190.31;;;15.61;100.00
56944;BME280;42848;42.524;12.052;2023-05-10T08:48:49;96182.59;;;15.67;100.00
56944;BME280;42848;42.524;12.052;2023-05-10T08:51:19;96182.41;;;15.56;100.00
56944;BME280;42848;42.524;12.052;2023-05-10T08:53:47;96183.56;;;15.55;100.00
56944;BME280;42848;42.524;12.052;2023-05-10T08:56:14;96189.16;;;15.40;100.00
56944;BME280;42848;42.524;12.052;2023-05-10T08:58:40;96172.31;;;15.60;100.00
56944;BME280;42848;42.524;12.052;2023-05-10T09:01:07;96177.53;;;15.46;100.00
56944;BME280;42848;42.524;12.052;2023-05-10T09:03:35;96185.06;;;15.53;100.00
56944;BME280;42848;42.524;12.052;2023-05-10T09:06:03;96182.13;;;15.61;100.00
56944;BME280;42848;42.524;12.052;2023-05-10T09:08:30;96181.31;;;15.38;100.00
56944;BME280;42848;42.524;12.052;2023-05-10T09:10:57;96181.91;;;15.28;100.00
56944;BME280;42848;42.524;12.052;2023-05-10T09:13:24;96185.31;;;15.44;100.00
56944;BME280;42848;42.524;12.052;2023-05-10T09:15:52;96183.25;;;15.38;100.00
56944;BME280;42848;42.524;12.052;2023-05-10T09:18:18;96171.81;;;15.32;100.00
56944;BME280;42848;42.524;12.052;2023-05-10T09:20:43;96181.03;;;15.24;100.00
56944;BME280;42848;42.524;12.052;2023-05-10T09:23:10;96179.34;;;15.39;100.00
56944;BME280;42848;42.524;12.052;2023-05-10T09:25:35;96182.38;;;15.11;100.00
56944;BME280;42848;42.524;12.052;2023-05-10T09:28:06;96181.13;;;15.08;100.00
56944;BME280;42848;42.524;12.052;2023-05-10T09:30:32;96171.84;;;15.13;100.00
56944;BME280;42848;42.524;12.052;2023-05-10T09:32:59;96178.41;;;15.08;100.00
56944;BME280;42848;42.524;12.052;2023-05-10T09:35:27;96178.16;;;15.17;100.00
56944;BME280;42848;42.524;12.052;2023-05-10T09:37:54;96176.72;;;15.00;100.00
56944;BME280;42848;42.524;12.052;2023-05-10T09:40:22;96177.28;;;15.32;100.00
56944;BME280;42848;42.524;12.052;2023-05-10T09:42:54;96177.53;;;15.46;100.00
56944;BME280;42848;42.524;12.052;2023-05-10T09:45:21;96163.97;;;15.30;100.00
56944;BME280;42848;42.524;12.052;2023-05-10T09:47:47;96161.53;;;15.25;100.00
56944;BME280;42848;42.524;12.052;2023-05-10T09:50:13;96161.28;;;15.11;100.00
56944;BME280;42848;42.524;12.052;2023-05-10T09:55:22;96156.75;;;15.42;100.00
56944;BME280;42848;42.524;12.052;2023-05-10T09:57:58;96166.94;;;15.22;100.00
56944;BME280;42848;42.524;12.052;2023-05-10T10:00:24;96159.28;;;15.31;100.00
56944;BME280;42848;42.524;12.052;2023-05-10T10:02:59;96163.19;;;15.30;100.00
56944;BME280;42848;42.524;12.052;2023-05-10T10:05:35;96169.75;;;15.48;100.00
56944;BME280;42848;42.524;12.052;2023-05-10T10:08:05;96171.94;;;15.39;100.00
56944;BME280;42848;42.524;12.052;2023-05-10T10:10:32;96158.06;;;15.05;100.00
56944;BME280;42848;42.524;12.052;2023-05-10T10:12:59;96166.34;;;15.32;100.00
56944;BME280;42848;42.524;12.052;2023-05-10T10:15:25;96161.44;;;15.18;100.00
56944;BME280;42848;42.524;12.052;2023-05-10T10:17:52;96162.75;;;14.86;100.00
56944;BME280;42848;42.524;12.052;2023-05-10T10:20:20;96162.72;;;15.05;100.00
56944;BME280;42848;42.524;12.052;2023-05-10T10:22:47;96157.06;;;14.94;100.00
56944;BME280;42848;42.524;12.052;2023-05-10T10:25:16;96151.75;;;14.82;100.00
56944;BME280;42848;42.524;12.052;2023-05-10T10:30:37;96156.06;;;14.83;100.00
56944;BME280;42848;42.524;12.052;2023-05-10T10:33:40;96146.63;;;15.00;100.00
56944;BME280;42848;42.524;12.052;2023-05-10T10:36:15;96149.31;;;14.77;100.00
56944;BME280;42848;42.524;12.052;2023-05-10T10:41:34;96151.59;;;14.94;100.00
56944;BME280;42848;42.524;12.052;2023-05-10T10:47:10;96140.97;;;14.70;100.00
56944;BME280;42848;42.524;12.052;2023-05-10T10:52:30;96142.13;;;14.69;100.00
56944;BME280;42848;42.524;12.052;2023-05-10T10:55:02;96138.41;;;14.58;100.00
56944;BME280;42848;42.524;12.052;2023-05-10T10:57:31;96134.88;;;14.76;100.00
56944;BME280;42848;42.524;12.052;2023-05-10T11:00:23;96132.91;;;14.77;100.00
56944;BME280;42848;42.524;12.052;2023-05-10T11:05:44;96129.69;;;14.91;100.00
56944;BME280;42848;42.524;12.052;2023-05-10T11:08:30;96124.34;;;14.78;100.00
56944;BME280;42848;42.524;12.052;2023-05-10T11:13:40;96133.19;;;14.72;100.00
56944;BME280;42848;42.524;12.052;2023-05-10T11:18:40;96121.44;;;14.68;100.00
56944;BME280;42848;42.524;12.052;2023-05-10T11:21:08;96120.09;;;14.81;100.00
56944;BME280;42848;42.524;12.052;2023-05-10T11:26:14;96112.59;;;14.74;100.00
56944;BME280;42848;42.524;12.052;2023-05-10T11:28:44;96124.44;;;14.63;100.00
56944;BME280;42848;42.524;12.052;2023-05-10T11:31:10;96122.28;;;14.72;100.00
56944;BME280;42848;42.524;12.052;2023-05-10T11:33:45;96112.22;;;14.76;100.00
56944;BME280;42848;42.524;12.052;2023-05-10T11:36:15;96112.22;;;14.76;100.00
56944;BME280;42848;42.524;12.052;2023-05-10T11:38:41;96116.09;;;14.75;100.00
56944;BME280;42848;42.524;12.052;2023-05-10T11:41:11;96120.56;;;14.83;100.00
56944;BME280;42848;42.524;12.052;2023-05-10T11:43:41;96119.81;;;14.86;100.00
56944;BME280;42848;42.524;12.052;2023-05-10T11:46:10;96115.69;;;14.96;100.00
56944;BME280;42848;42.524;12.052;2023-05-10T11:48:39;96103.66;;;14.77;100.00
56944;BME280;42848;42.524;12.052;2023-05-10T11:51:06;96110.66;;;14.98;100.00
56944;BME280;42848;42.524;12.052;2023-05-10T11:53:33;96103.63;;;14.97;100.00
56944;BME280;42848;42.524;12.052;2023-05-10T11:56:09;96108.59;;;14.91;100.00
56944;BME280;42848;42.524;12.052;2023-05-10T11:58:36;96098.75;;;14.87;100.00
56944;BME280;42848;42.524;12.052;2023-05-10T12:01:04;96111.03;;;14.96;100.00
56944;BME280;42848;42.524;12.052;2023-05-10T12:03:31;96105.56;;;14.96;100.00
56944;BME280;42848;42.524;12.052;2023-05-10T12:05:58;96104.78;;;14.96;100.00
56944;BME280;42848;42.524;12.052;2023-05-10T12:08:26;96103.97;;;14.95;100.00
56944;BME280;42848;42.524;12.052;2023-05-10T12:10:53;96094.94;;;15.14;100.00
56944;BME280;42848;42.524;12.052;2023-05-10T12:13:19;96101.44;;;15.29;100.00
56944;BME280;42848;42.524;12.052;2023-05-10T12:15:46;96098.22;;;15.23;100.00
56944;BME280;42848;42.524;12.052;2023-05-10T12:18:14;96092.31;;;14.98;100.00
56944;BME280;42848;42.524;12.052;2023-05-10T12:20:40;96092.69;;;15.20;100.00
56944;BME280;42848;42.524;12.052;2023-05-10T12:23:09;96092.09;;;15.30;100.00
56944;BME280;42848;42.524;12.052;2023-05-10T12:25:38;96091.22;;;15.26;100.00
56944;BME280;42848;42.524;12.052;2023-05-10T12:28:07;96086.06;;;15.21;100.00
56944;BME280;42848;42.524;12.052;2023-05-10T12:30:35;96086.50;;;15.23;100.00
56944;BME280;42848;42.524;12.052;2023-05-10T12:33:02;96089.66;;;15.25;100.00
56944;BME280;42848;42.524;12.052;2023-05-10T12:35:33;96085.41;;;15.04;100.00
56944;BME280;42848;42.524;12.052;2023-05-10T12:37:59;96082.97;;;14.99;100.00
56944;BME280;42848;42.524;12.052;2023-05-10T12:40:25;96074.59;;;15.12;100.00
56944;BME280;42848;42.524;12.052;2023-05-10T12:42:51;96078.91;;;15.13;100.00
56944;BME280;42848;42.524;12.052;2023-05-10T12:45:18;96078.91;;;15.13;100.00
56944;BME280;42848;42.524;12.052;2023-05-10T12:47:43;96076.16;;;15.13;100.00
56944;BME280;42848;42.524;12.052;2023-05-10T12:50:09;96078.66;;;15.21;100.00
56944;BME280;42848;42.524;12.052;2023-05-10T12:52:35;96068.00;;;15.39;100.00
56944;BME280;42848;42.524;12.052;2023-05-10T12:55:01;96064.75;;;15.30;100.00
56944;BME280;42848;42.524;12.052;2023-05-10T12:57:28;96065.56;;;15.34;100.00
56944;BME280;42848;42.524;12.052;2023-05-10T12:59:54;96065.41;;;15.46;100.00
56944;BME280;42848;42.524;12.052;2023-05-10T13:02:20;96062.59;;;15.66;100.00
56944;BME280;42848;42.524;12.052;2023-05-10T13:04:47;96056.56;;;15.56;100.00
56944;BME280;42848;42.524;12.052;2023-05-10T13:07:13;96063.84;;;15.72;100.00
56944;BME280;42848;42.524;12.052;2023-05-10T13:09:39;96053.44;;;15.58;100.00
56944;BME280;42848;42.524;12.052;2023-05-10T13:12:04;96059.00;;;15.61;100.00
56944;BME280;42848;42.524;12.052;2023-05-10T13:14:31;96041.94;;;15.72;100.00
56944;BME280;42848;42.524;12.052;2023-05-10T13:16:56;96049.69;;;15.66;100.00
56944;BME280;42848;42.524;12.052;2023-05-10T13:19:22;96039.88;;;15.91;100.00
56944;BME280;42848;42.524;12.052;2023-05-10T13:21:48;96041.00;;;15.87;100.00
56944;BME280;42848;42.524;12.052;2023-05-10T13:24:14;96039.00;;;15.84;100.00
56944;BME280;42848;42.524;12.052;2023-05-10T13:26:40;96039.69;;;15.77;100.00